Terminal Aerodrome Forecast
Issued by NWS

Home | Current Version | Previous Version | Text Only | Print | Product List | Glossary On
Versions: 1 2 3 4 5 6 7 8 9 10 11 12 13
000
FTUS45 KREV 240538
TAFTVL
TAF
KTVL 240538Z 2406/2506 19008KT P6SM SCT140 OVC200
     FM241000 19010G18KT P6SM SCT100 BKN180 WS020/22040KT
     FM241600 19020G38KT P6SM SCT080 BKN120 WS020/22050KT
     FM242300 19014G28KT P6SM VCSH SCT035 BKN060 WS020/22055KT
     FM250200 19010G20KT 1SM -SN SCT008 OVC015=

USA.gov is the U.S. government's official web portal to all federal, state and local government web resources and services.